sensor_id;sensor_type;location;lat;lon;timestamp;P1;durP1;ratioP1;P2;durP2;ratioP2
13461;SDS011;6803;45.264;5.468;2023-03-14T00:03:50;0.30;;;0.30;;
13461;SDS011;6803;45.264;5.468;2023-03-14T00:06:20;0.60;;;0.60;;
13461;SDS011;6803;45.264;5.468;2023-03-14T00:08:52;1.20;;;0.43;;
13461;SDS011;6803;45.264;5.468;2023-03-14T00:11:24;0.77;;;0.40;;
13461;SDS011;6803;45.264;5.468;2023-03-14T00:13:55;0.93;;;0.53;;
13461;SDS011;6803;45.264;5.468;2023-03-14T00:16:27;0.40;;;0.40;;
13461;SDS011;6803;45.264;5.468;2023-03-14T00:18:58;0.97;;;0.50;;
13461;SDS011;6803;45.264;5.468;2023-03-14T00:21:30;1.13;;;0.70;;
13461;SDS011;6803;45.264;5.468;2023-03-14T00:24:01;0.37;;;0.37;;
13461;SDS011;6803;45.264;5.468;2023-03-14T00:26:32;0.37;;;0.20;;
13461;SDS011;6803;45.264;5.468;2023-03-14T00:29:03;0.93;;;0.50;;
13461;SDS011;6803;45.264;5.468;2023-03-14T00:31:34;1.17;;;0.70;;
13461;SDS011;6803;45.264;5.468;2023-03-14T00:34:07;2.47;;;0.50;;
13461;SDS011;6803;45.264;5.468;2023-03-14T00:36:38;0.87;;;0.50;;
13461;SDS011;6803;45.264;5.468;2023-03-14T00:39:09;0.90;;;0.50;;
13461;SDS011;6803;45.264;5.468;2023-03-14T00:41:39;0.43;;;0.40;;
13461;SDS011;6803;45.264;5.468;2023-03-14T00:44:10;0.20;;;0.20;;
13461;SDS011;6803;45.264;5.468;2023-03-14T00:46:41;1.23;;;0.50;;
13461;SDS011;6803;45.264;5.468;2023-03-14T00:49:12;0.33;;;0.33;;
13461;SDS011;6803;45.264;5.468;2023-03-14T00:51:44;0.37;;;0.37;;
13461;SDS011;6803;45.264;5.468;2023-03-14T00:54:15;0.67;;;0.40;;
13461;SDS011;6803;45.264;5.468;2023-03-14T00:56:46;0.30;;;0.30;;
13461;SDS011;6803;45.264;5.468;2023-03-14T00:59:17;0.47;;;0.30;;
13461;SDS011;6803;45.264;5.468;2023-03-14T01:01:48;0.30;;;0.30;;
13461;SDS011;6803;45.264;5.468;2023-03-14T01:04:20;3.53;;;0.40;;
13461;SDS011;6803;45.264;5.468;2023-03-14T01:06:51;0.33;;;0.20;;
13461;SDS011;6803;45.264;5.468;2023-03-14T01:09:22;0.40;;;0.40;;
13461;SDS011;6803;45.264;5.468;2023-03-14T01:11:53;0.60;;;0.40;;
13461;SDS011;6803;45.264;5.468;2023-03-14T01:14:24;0.77;;;0.73;;
13461;SDS011;6803;45.264;5.468;2023-03-14T01:16:55;0.60;;;0.50;;
13461;SDS011;6803;45.264;5.468;2023-03-14T01:19:28;1.23;;;0.50;;
13461;SDS011;6803;45.264;5.468;2023-03-14T01:21:59;0.90;;;0.50;;
13461;SDS011;6803;45.264;5.468;2023-03-14T01:24:30;1.90;;;0.53;;
13461;SDS011;6803;45.264;5.468;2023-03-14T01:27:01;0.70;;;0.50;;
13461;SDS011;6803;45.264;5.468;2023-03-14T01:29:32;0.40;;;0.40;;
13461;SDS011;6803;45.264;5.468;2023-03-14T01:32:04;0.37;;;0.37;;
13461;SDS011;6803;45.264;5.468;2023-03-14T01:34:35;1.30;;;0.33;;
13461;SDS011;6803;45.264;5.468;2023-03-14T01:37:06;3.93;;;0.37;;
13461;SDS011;6803;45.264;5.468;2023-03-14T01:39:39;0.40;;;0.40;;
13461;SDS011;6803;45.264;5.468;2023-03-14T01:42:10;2.93;;;0.70;;
13461;SDS011;6803;45.264;5.468;2023-03-14T01:44:51;1.03;;;0.70;;
13461;SDS011;6803;45.264;5.468;2023-03-14T01:47:23;0.50;;;0.40;;
13461;SDS011;6803;45.264;5.468;2023-03-14T01:49:55;1.60;;;0.50;;
13461;SDS011;6803;45.264;5.468;2023-03-14T01:52:29;4.67;;;0.53;;
13461;SDS011;6803;45.264;5.468;2023-03-14T01:55:03;3.23;;;0.60;;
13461;SDS011;6803;45.264;5.468;2023-03-14T01:57:37;2.10;;;0.70;;
13461;SDS011;6803;45.264;5.468;2023-03-14T02:00:12;0.60;;;0.60;;
13461;SDS011;6803;45.264;5.468;2023-03-14T02:02:47;1.90;;;0.30;;
13461;SDS011;6803;45.264;5.468;2023-03-14T02:05:21;0.40;;;0.40;;
13461;SDS011;6803;45.264;5.468;2023-03-14T02:07:55;0.50;;;0.40;;
13461;SDS011;6803;45.264;5.468;2023-03-14T02:10:28;1.67;;;0.50;;
13461;SDS011;6803;45.264;5.468;2023-03-14T02:13:02;1.23;;;0.60;;
13461;SDS011;6803;45.264;5.468;2023-03-14T02:15:34;0.40;;;0.40;;
13461;SDS011;6803;45.264;5.468;2023-03-14T02:18:05;0.80;;;0.50;;
13461;SDS011;6803;45.264;5.468;2023-03-14T02:20:39;0.53;;;0.40;;
13461;SDS011;6803;45.264;5.468;2023-03-14T02:23:11;1.07;;;0.37;;
13461;SDS011;6803;45.264;5.468;2023-03-14T02:28:35;0.13;;;0.13;;
13461;SDS011;6803;45.264;5.468;2023-03-14T02:31:07;0.70;;;0.57;;
13461;SDS011;6803;45.264;5.468;2023-03-14T02:33:38;0.40;;;0.30;;
13461;SDS011;6803;45.264;5.468;2023-03-14T02:36:10;0.73;;;0.30;;
13461;SDS011;6803;45.264;5.468;2023-03-14T02:38:45;0.77;;;0.43;;
13461;SDS011;6803;45.264;5.468;2023-03-14T02:41:18;0.30;;;0.30;;
13461;SDS011;6803;45.264;5.468;2023-03-14T02:43:49;0.30;;;0.30;;
13461;SDS011;6803;45.264;5.468;2023-03-14T02:46:20;0.20;;;0.20;;
13461;SDS011;6803;45.264;5.468;2023-03-14T02:48:53;0.97;;;0.40;;
13461;SDS011;6803;45.264;5.468;2023-03-14T02:51:27;0.40;;;0.40;;
13461;SDS011;6803;45.264;5.468;2023-03-14T02:53:58;0.50;;;0.40;;
13461;SDS011;6803;45.264;5.468;2023-03-14T02:56:29;0.77;;;0.30;;
13461;SDS011;6803;45.264;5.468;2023-03-14T02:59:02;0.50;;;0.30;;
13461;SDS011;6803;45.264;5.468;2023-03-14T03:01:34;2.13;;;0.40;;
13461;SDS011;6803;45.264;5.468;2023-03-14T03:04:05;1.57;;;0.30;;
13461;SDS011;6803;45.264;5.468;2023-03-14T03:06:37;0.70;;;0.50;;
13461;SDS011;6803;45.264;5.468;2023-03-14T03:09:08;0.47;;;0.20;;
13461;SDS011;6803;45.264;5.468;2023-03-14T03:11:40;0.33;;;0.33;;
13461;SDS011;6803;45.264;5.468;2023-03-14T03:14:11;0.80;;;0.50;;
13461;SDS011;6803;45.264;5.468;2023-03-14T03:16:41;2.37;;;0.43;;
13461;SDS011;6803;45.264;5.468;2023-03-14T03:19:12;0.70;;;0.50;;
13461;SDS011;6803;45.264;5.468;2023-03-14T03:21:45;0.77;;;0.50;;
13461;SDS011;6803;45.264;5.468;2023-03-14T03:24:16;0.57;;;0.37;;
13461;SDS011;6803;45.264;5.468;2023-03-14T03:26:47;1.40;;;0.40;;
13461;SDS011;6803;45.264;5.468;2023-03-14T03:29:19;1.77;;;0.43;;
13461;SDS011;6803;45.264;5.468;2023-03-14T03:31:51;0.50;;;0.40;;
13461;SDS011;6803;45.264;5.468;2023-03-14T03:34:22;0.63;;;0.20;;
13461;SDS011;6803;45.264;5.468;2023-03-14T03:36:55;1.80;;;0.90;;
13461;SDS011;6803;45.264;5.468;2023-03-14T03:39:26;0.40;;;0.37;;
13461;SDS011;6803;45.264;5.468;2023-03-14T03:41:57;3.03;;;0.40;;
13461;SDS011;6803;45.264;5.468;2023-03-14T03:44:28;0.70;;;0.47;;
13461;SDS011;6803;45.264;5.468;2023-03-14T03:46:59;0.40;;;0.40;;
13461;SDS011;6803;45.264;5.468;2023-03-14T03:49:30;2.00;;;0.47;;
13461;SDS011;6803;45.264;5.468;2023-03-14T03:52:02;2.10;;;0.60;;
13461;SDS011;6803;45.264;5.468;2023-03-14T03:54:33;1.70;;;0.60;;
13461;SDS011;6803;45.264;5.468;2023-03-14T03:57:04;3.17;;;0.60;;
13461;SDS011;6803;45.264;5.468;2023-03-14T03:59:35;1.33;;;0.30;;
13461;SDS011;6803;45.264;5.468;2023-03-14T04:02:07;5.50;;;0.50;;
13461;SDS011;6803;45.264;5.468;2023-03-14T04:04:39;0.43;;;0.43;;
13461;SDS011;6803;45.264;5.468;2023-03-14T04:07:10;3.23;;;0.53;;
13461;SDS011;6803;45.264;5.468;2023-03-14T04:09:43;1.23;;;0.20;;
13461;SDS011;6803;45.264;5.468;2023-03-14T04:12:14;1.63;;;0.87;;
13461;SDS011;6803;45.264;5.468;2023-03-14T04:14:45;1.13;;;0.70;;
13461;SDS011;6803;45.264;5.468;2023-03-14T04:17:17;1.03;;;0.30;;
13461;SDS011;6803;45.264;5.468;2023-03-14T04:19:49;1.40;;;0.80;;
13461;SDS011;6803;45.264;5.468;2023-03-14T04:22:21;0.73;;;0.40;;
13461;SDS011;6803;45.264;5.468;2023-03-14T04:24:52;0.47;;;0.40;;
13461;SDS011;6803;45.264;5.468;2023-03-14T04:27:23;2.00;;;0.60;;
13461;SDS011;6803;45.264;5.468;2023-03-14T04:29:55;2.43;;;0.60;;
13461;SDS011;6803;45.264;5.468;2023-03-14T04:32:26;0.97;;;0.30;;
13461;SDS011;6803;45.264;5.468;2023-03-14T04:34:57;0.53;;;0.37;;
13461;SDS011;6803;45.264;5.468;2023-03-14T04:37:28;2.43;;;0.80;;
13461;SDS011;6803;45.264;5.468;2023-03-14T04:39:59;1.53;;;0.50;;
13461;SDS011;6803;45.264;5.468;2023-03-14T04:42:33;1.40;;;0.43;;
13461;SDS011;6803;45.264;5.468;2023-03-14T04:45:05;0.57;;;0.50;;
13461;SDS011;6803;45.264;5.468;2023-03-14T04:47:37;0.50;;;0.30;;
13461;SDS011;6803;45.264;5.468;2023-03-14T04:50:09;0.97;;;0.40;;
13461;SDS011;6803;45.264;5.468;2023-03-14T04:52:40;1.13;;;0.60;;
13461;SDS011;6803;45.264;5.468;2023-03-14T04:55:11;0.90;;;0.53;;
13461;SDS011;6803;45.264;5.468;2023-03-14T04:57:42;1.07;;;0.37;;
13461;SDS011;6803;45.264;5.468;2023-03-14T05:00:14;0.20;;;0.20;;
13461;SDS011;6803;45.264;5.468;2023-03-14T05:02:46;0.97;;;0.50;;
13461;SDS011;6803;45.264;5.468;2023-03-14T05:05:17;2.57;;;0.60;;
13461;SDS011;6803;45.264;5.468;2023-03-14T05:07:48;0.30;;;0.30;;
13461;SDS011;6803;45.264;5.468;2023-03-14T05:10:20;2.30;;;0.40;;
13461;SDS011;6803;45.264;5.468;2023-03-14T05:12:52;3.03;;;0.70;;
13461;SDS011;6803;45.264;5.468;2023-03-14T05:15:23;2.50;;;0.37;;
13461;SDS011;6803;45.264;5.468;2023-03-14T05:20:31;1.07;;;0.60;;
13461;SDS011;6803;45.264;5.468;2023-03-14T05:23:03;1.00;;;0.50;;
13461;SDS011;6803;45.264;5.468;2023-03-14T05:25:34;2.90;;;1.32;;
13461;SDS011;6803;45.264;5.468;2023-03-14T05:28:05;0.17;;;0.13;;
13461;SDS011;6803;45.264;5.468;2023-03-14T05:30:36;4.60;;;0.60;;
13461;SDS011;6803;45.264;5.468;2023-03-14T05:33:07;1.00;;;0.67;;
13461;SDS011;6803;45.264;5.468;2023-03-14T05:35:38;0.90;;;0.57;;
13461;SDS011;6803;45.264;5.468;2023-03-14T05:38:11;0.80;;;0.60;;
13461;SDS011;6803;45.264;5.468;2023-03-14T05:40:51;1.77;;;0.60;;
13461;SDS011;6803;45.264;5.468;2023-03-14T05:43:22;1.23;;;0.70;;
13461;SDS011;6803;45.264;5.468;2023-03-14T05:45:53;1.63;;;0.77;;
13461;SDS011;6803;45.264;5.468;2023-03-14T05:48:24;1.40;;;0.90;;
13461;SDS011;6803;45.264;5.468;2023-03-14T05:50:55;1.43;;;0.47;;
13461;SDS011;6803;45.264;5.468;2023-03-14T05:53:27;2.60;;;0.87;;
13461;SDS011;6803;45.264;5.468;2023-03-14T05:55:58;3.13;;;0.93;;
13461;SDS011;6803;45.264;5.468;2023-03-14T05:58:28;2.27;;;0.80;;
13461;SDS011;6803;45.264;5.468;2023-03-14T06:01:01;0.53;;;0.53;;
13461;SDS011;6803;45.264;5.468;2023-03-14T06:03:33;0.73;;;0.60;;
13461;SDS011;6803;45.264;5.468;2023-03-14T06:06:05;1.20;;;0.60;;
13461;SDS011;6803;45.264;5.468;2023-03-14T06:08:36;0.60;;;0.60;;
13461;SDS011;6803;45.264;5.468;2023-03-14T06:11:07;1.50;;;0.67;;
13461;SDS011;6803;45.264;5.468;2023-03-14T06:13:38;2.53;;;0.70;;
13461;SDS011;6803;45.264;5.468;2023-03-14T06:16:09;1.33;;;0.60;;
13461;SDS011;6803;45.264;5.468;2023-03-14T06:18:39;2.73;;;0.57;;
13461;SDS011;6803;45.264;5.468;2023-03-14T06:21:13;4.37;;;0.87;;
13461;SDS011;6803;45.264;5.468;2023-03-14T06:23:45;2.80;;;0.70;;
13461;SDS011;6803;45.264;5.468;2023-03-14T06:26:16;1.43;;;0.67;;
13461;SDS011;6803;45.264;5.468;2023-03-14T06:28:46;1.67;;;0.40;;
13461;SDS011;6803;45.264;5.468;2023-03-14T06:31:18;2.23;;;0.80;;
13461;SDS011;6803;45.264;5.468;2023-03-14T06:33:49;3.03;;;0.53;;
13461;SDS011;6803;45.264;5.468;2023-03-14T06:36:20;5.07;;;0.53;;
13461;SDS011;6803;45.264;5.468;2023-03-14T06:38:50;1.77;;;0.47;;
13461;SDS011;6803;45.264;5.468;2023-03-14T06:41:21;1.63;;;0.60;;
13461;SDS011;6803;45.264;5.468;2023-03-14T06:43:53;0.93;;;0.50;;
13461;SDS011;6803;45.264;5.468;2023-03-14T06:46:24;0.97;;;0.80;;
13461;SDS011;6803;45.264;5.468;2023-03-14T06:48:55;1.33;;;1.20;;
13461;SDS011;6803;45.264;5.468;2023-03-14T06:51:26;2.77;;;0.90;;
13461;SDS011;6803;45.264;5.468;2023-03-14T06:53:57;6.60;;;1.27;;
13461;SDS011;6803;45.264;5.468;2023-03-14T06:56:28;0.80;;;0.80;;
13461;SDS011;6803;45.264;5.468;2023-03-14T06:58:59;6.67;;;1.23;;
13461;SDS011;6803;45.264;5.468;2023-03-14T07:01:30;2.63;;;0.80;;
13461;SDS011;6803;45.264;5.468;2023-03-14T07:04:02;1.37;;;0.97;;
13461;SDS011;6803;45.264;5.468;2023-03-14T07:06:33;3.23;;;0.90;;
13461;SDS011;6803;45.264;5.468;2023-03-14T07:09:05;2.93;;;0.97;;
13461;SDS011;6803;45.264;5.468;2023-03-14T07:11:36;1.13;;;0.90;;
13461;SDS011;6803;45.264;5.468;2023-03-14T07:14:06;4.80;;;0.63;;
13461;SDS011;6803;45.264;5.468;2023-03-14T07:16:37;1.23;;;1.00;;
13461;SDS011;6803;45.264;5.468;2023-03-14T07:19:08;1.37;;;0.87;;
13461;SDS011;6803;45.264;5.468;2023-03-14T07:21:39;1.63;;;0.73;;
13461;SDS011;6803;45.264;5.468;2023-03-14T07:24:09;3.33;;;1.03;;
13461;SDS011;6803;45.264;5.468;2023-03-14T07:26:40;1.63;;;0.70;;
13461;SDS011;6803;45.264;5.468;2023-03-14T07:29:11;0.80;;;0.70;;
13461;SDS011;6803;45.264;5.468;2023-03-14T07:31:42;2.80;;;0.87;;
13461;SDS011;6803;45.264;5.468;2023-03-14T07:34:12;1.73;;;1.07;;
13461;SDS011;6803;45.264;5.468;2023-03-14T07:36:43;2.10;;;1.10;;
13461;SDS011;6803;45.264;5.468;2023-03-14T07:39:14;3.10;;;1.07;;
13461;SDS011;6803;45.264;5.468;2023-03-14T07:41:45;3.70;;;0.90;;
13461;SDS011;6803;45.264;5.468;2023-03-14T07:44:16;1.60;;;0.80;;
13461;SDS011;6803;45.264;5.468;2023-03-14T07:46:46;3.83;;;0.87;;
13461;SDS011;6803;45.264;5.468;2023-03-14T07:49:17;1.67;;;0.70;;
13461;SDS011;6803;45.264;5.468;2023-03-14T07:51:48;2.93;;;0.63;;
13461;SDS011;6803;45.264;5.468;2023-03-14T07:54:19;2.07;;;0.60;;
13461;SDS011;6803;45.264;5.468;2023-03-14T07:56:51;0.70;;;0.70;;
13461;SDS011;6803;45.264;5.468;2023-03-14T07:59:23;2.90;;;1.10;;
13461;SDS011;6803;45.264;5.468;2023-03-14T08:01:53;1.43;;;1.10;;
13461;SDS011;6803;45.264;5.468;2023-03-14T08:04:24;1.30;;;0.80;;
13461;SDS011;6803;45.264;5.468;2023-03-14T08:06:55;2.80;;;0.73;;
13461;SDS011;6803;45.264;5.468;2023-03-14T08:09:26;3.80;;;1.77;;
13461;SDS011;6803;45.264;5.468;2023-03-14T08:11:57;3.37;;;2.10;;
13461;SDS011;6803;45.264;5.468;2023-03-14T08:14:28;3.40;;;1.70;;
13461;SDS011;6803;45.264;5.468;2023-03-14T08:17:06;4.20;;;1.80;;
13461;SDS011;6803;45.264;5.468;2023-03-14T08:19:37;4.57;;;1.83;;
13461;SDS011;6803;45.264;5.468;2023-03-14T08:22:10;1.17;;;0.97;;
13461;SDS011;6803;45.264;5.468;2023-03-14T08:24:41;3.47;;;1.13;;
13461;SDS011;6803;45.264;5.468;2023-03-14T08:27:12;2.83;;;1.03;;
13461;SDS011;6803;45.264;5.468;2023-03-14T08:29:43;1.93;;;1.00;;
13461;SDS011;6803;45.264;5.468;2023-03-14T08:32:14;3.53;;;1.03;;
13461;SDS011;6803;45.264;5.468;2023-03-14T08:34:45;1.17;;;0.73;;
13461;SDS011;6803;45.264;5.468;2023-03-14T08:37:16;3.83;;;1.20;;
13461;SDS011;6803;45.264;5.468;2023-03-14T08:39:49;2.20;;;1.80;;
13461;SDS011;6803;45.264;5.468;2023-03-14T08:42:20;4.60;;;1.43;;
13461;SDS011;6803;45.264;5.468;2023-03-14T08:44:52;2.00;;;1.03;;
13461;SDS011;6803;45.264;5.468;2023-03-14T08:47:23;1.93;;;1.50;;
13461;SDS011;6803;45.264;5.468;2023-03-14T08:49:54;3.00;;;1.47;;
13461;SDS011;6803;45.264;5.468;2023-03-14T08:52:26;4.00;;;1.60;;
13461;SDS011;6803;45.264;5.468;2023-03-14T08:54:59;1.30;;;0.93;;
13461;SDS011;6803;45.264;5.468;2023-03-14T08:57:30;3.73;;;1.20;;
13461;SDS011;6803;45.264;5.468;2023-03-14T09:00:02;2.50;;;1.33;;
13461;SDS011;6803;45.264;5.468;2023-03-14T09:02:38;1.27;;;1.00;;
13461;SDS011;6803;45.264;5.468;2023-03-14T09:05:09;1.53;;;0.83;;
13461;SDS011;6803;45.264;5.468;2023-03-14T09:07:41;4.17;;;1.00;;
13461;SDS011;6803;45.264;5.468;2023-03-14T09:10:17;0.93;;;0.63;;
13461;SDS011;6803;45.264;5.468;2023-03-14T09:12:50;2.00;;;0.73;;
13461;SDS011;6803;45.264;5.468;2023-03-14T09:15:26;3.33;;;0.90;;
13461;SDS011;6803;45.264;5.468;2023-03-14T09:18:03;4.57;;;0.77;;
13461;SDS011;6803;45.264;5.468;2023-03-14T09:20:35;3.50;;;0.83;;
13461;SDS011;6803;45.264;5.468;2023-03-14T09:23:07;3.90;;;1.20;;
13461;SDS011;6803;45.264;5.468;2023-03-14T09:25:38;2.63;;;0.90;;
13461;SDS011;6803;45.264;5.468;2023-03-14T09:28:09;2.37;;;0.60;;
13461;SDS011;6803;45.264;5.468;2023-03-14T09:30:41;2.43;;;0.63;;
13461;SDS011;6803;45.264;5.468;2023-03-14T09:33:12;5.23;;;2.30;;
13461;SDS011;6803;45.264;5.468;2023-03-14T09:35:42;8.73;;;3.07;;
13461;SDS011;6803;45.264;5.468;2023-03-14T09:38:14;3.40;;;1.60;;
13461;SDS011;6803;45.264;5.468;2023-03-14T09:40:45;6.37;;;2.70;;
13461;SDS011;6803;45.264;5.468;2023-03-14T09:43:17;2.73;;;1.73;;
13461;SDS011;6803;45.264;5.468;2023-03-14T09:45:49;2.50;;;1.27;;
13461;SDS011;6803;45.264;5.468;2023-03-14T09:48:21;1.47;;;0.80;;
13461;SDS011;6803;45.264;5.468;2023-03-14T09:50:55;2.00;;;0.97;;
13461;SDS011;6803;45.264;5.468;2023-03-14T09:53:32;2.23;;;0.90;;
13461;SDS011;6803;45.264;5.468;2023-03-14T09:56:07;2.27;;;1.40;;
13461;SDS011;6803;45.264;5.468;2023-03-14T09:58:41;2.03;;;1.30;;
13461;SDS011;6803;45.264;5.468;2023-03-14T10:01:15;2.27;;;1.50;;
13461;SDS011;6803;45.264;5.468;2023-03-14T10:03:48;4.63;;;2.00;;
13461;SDS011;6803;45.264;5.468;2023-03-14T10:06:21;4.33;;;1.80;;
13461;SDS011;6803;45.264;5.468;2023-03-14T10:08:55;6.33;;;1.80;;
13461;SDS011;6803;45.264;5.468;2023-03-14T10:11:26;7.37;;;2.60;;
13461;SDS011;6803;45.264;5.468;2023-03-14T10:14:04;4.73;;;1.90;;
13461;SDS011;6803;45.264;5.468;2023-03-14T10:16:37;6.70;;;1.93;;
13461;SDS011;6803;45.264;5.468;2023-03-14T10:19:12;4.37;;;1.50;;
13461;SDS011;6803;45.264;5.468;2023-03-14T10:21:50;5.83;;;1.40;;
13461;SDS011;6803;45.264;5.468;2023-03-14T10:24:22;3.73;;;1.33;;
13461;SDS011;6803;45.264;5.468;2023-03-14T10:26:55;3.50;;;1.03;;
13461;SDS011;6803;45.264;5.468;2023-03-14T10:29:30;2.40;;;1.23;;
13461;SDS011;6803;45.264;5.468;2023-03-14T10:32:03;4.47;;;2.73;;
13461;SDS011;6803;45.264;5.468;2023-03-14T10:34:35;6.60;;;3.13;;
13461;SDS011;6803;45.264;5.468;2023-03-14T10:37:08;3.90;;;1.57;;
13461;SDS011;6803;45.264;5.468;2023-03-14T10:39:47;3.10;;;1.40;;
13461;SDS011;6803;45.264;5.468;2023-03-14T10:42:20;8.23;;;1.67;;
13461;SDS011;6803;45.264;5.468;2023-03-14T10:44:55;6.50;;;2.70;;
13461;SDS011;6803;45.264;5.468;2023-03-14T10:47:28;3.70;;;1.70;;
13461;SDS011;6803;45.264;5.468;2023-03-14T10:50:22;3.70;;;1.30;;
13461;SDS011;6803;45.264;5.468;2023-03-14T10:55:41;3.33;;;1.20;;
13461;SDS011;6803;45.264;5.468;2023-03-14T11:01:07;3.70;;;1.13;;
13461;SDS011;6803;45.264;5.468;2023-03-14T11:03:43;3.70;;;1.17;;
13461;SDS011;6803;45.264;5.468;2023-03-14T11:06:18;3.43;;;1.20;;
13461;SDS011;6803;45.264;5.468;2023-03-14T11:08:53;4.87;;;1.50;;
13461;SDS011;6803;45.264;5.468;2023-03-14T11:11:27;2.13;;;1.40;;
13461;SDS011;6803;45.264;5.468;2023-03-14T11:14:06;4.17;;;1.17;;
13461;SDS011;6803;45.264;5.468;2023-03-14T11:16:42;3.93;;;1.43;;
13461;SDS011;6803;45.264;5.468;2023-03-14T11:19:21;4.37;;;1.20;;
13461;SDS011;6803;45.264;5.468;2023-03-14T11:22:38;3.50;;;1.03;;
13461;SDS011;6803;45.264;5.468;2023-03-14T11:25:23;3.80;;;0.90;;
13461;SDS011;6803;45.264;5.468;2023-03-14T11:27:58;1.57;;;0.80;;
13461;SDS011;6803;45.264;5.468;2023-03-14T11:30:34;5.23;;;1.00;;
13461;SDS011;6803;45.264;5.468;2023-03-14T11:33:15;2.00;;;0.90;;
13461;SDS011;6803;45.264;5.468;2023-03-14T11:35:49;5.40;;;1.03;;
13461;SDS011;6803;45.264;5.468;2023-03-14T11:38:26;2.27;;;0.80;;
13461;SDS011;6803;45.264;5.468;2023-03-14T11:41:01;3.17;;;1.00;;
13461;SDS011;6803;45.264;5.468;2023-03-14T11:43:35;6.30;;;1.00;;
13461;SDS011;6803;45.264;5.468;2023-03-14T11:46:09;15.98;;;3.92;;
13461;SDS011;6803;45.264;5.468;2023-03-14T11:48:43;4.57;;;1.23;;
13461;SDS011;6803;45.264;5.468;2023-03-14T11:51:19;3.27;;;1.03;;
13461;SDS011;6803;45.264;5.468;2023-03-14T11:53:55;7.97;;;1.10;;
13461;SDS011;6803;45.264;5.468;2023-03-14T11:56:36;5.87;;;1.20;;
13461;SDS011;6803;45.264;5.468;2023-03-14T11:59:12;3.40;;;0.83;;
13461;SDS011;6803;45.264;5.468;2023-03-14T12:01:51;3.63;;;1.10;;
13461;SDS011;6803;45.264;5.468;2023-03-14T12:04:28;15.55;;;3.72;;
13461;SDS011;6803;45.264;5.468;2023-03-14T12:07:11;2.20;;;0.87;;
13461;SDS011;6803;45.264;5.468;2023-03-14T12:09:44;3.23;;;1.00;;
13461;SDS011;6803;45.264;5.468;2023-03-14T12:12:18;2.63;;;1.07;;
13461;SDS011;6803;45.264;5.468;2023-03-14T12:14:53;2.73;;;0.67;;
13461;SDS011;6803;45.264;5.468;2023-03-14T12:17:27;6.00;;;1.47;;
13461;SDS011;6803;45.264;5.468;2023-03-14T12:20:05;3.90;;;0.80;;
13461;SDS011;6803;45.264;5.468;2023-03-14T12:22:42;4.13;;;1.13;;
13461;SDS011;6803;45.264;5.468;2023-03-14T12:25:15;1.70;;;0.80;;
13461;SDS011;6803;45.264;5.468;2023-03-14T12:30:48;3.30;;;0.90;;
13461;SDS011;6803;45.264;5.468;2023-03-14T12:33:26;5.37;;;1.00;;
13461;SDS011;6803;45.264;5.468;2023-03-14T12:36:10;3.17;;;1.27;;
13461;SDS011;6803;45.264;5.468;2023-03-14T12:39:09;3.60;;;0.93;;
13461;SDS011;6803;45.264;5.468;2023-03-14T12:41:46;3.67;;;1.13;;
13461;SDS011;6803;45.264;5.468;2023-03-14T12:47:42;7.20;;;1.43;;
13461;SDS011;6803;45.264;5.468;2023-03-14T12:50:26;2.13;;;0.73;;
13461;SDS011;6803;45.264;5.468;2023-03-14T12:56:36;2.60;;;1.07;;
13461;SDS011;6803;45.264;5.468;2023-03-14T12:59:26;3.00;;;1.00;;
13461;SDS011;6803;45.264;5.468;2023-03-14T13:02:01;4.70;;;1.30;;
13461;SDS011;6803;45.264;5.468;2023-03-14T13:04:46;5.27;;;0.97;;
13461;SDS011;6803;45.264;5.468;2023-03-14T13:07:33;6.33;;;1.33;;
13461;SDS011;6803;45.264;5.468;2023-03-14T13:10:38;2.43;;;0.90;;
13461;SDS011;6803;45.264;5.468;2023-03-14T13:13:15;4.63;;;1.20;;
13461;SDS011;6803;45.264;5.468;2023-03-14T13:15:53;3.60;;;0.90;;
13461;SDS011;6803;45.264;5.468;2023-03-14T13:18:40;3.77;;;1.33;;
13461;SDS011;6803;45.264;5.468;2023-03-14T13:21:16;3.17;;;1.27;;
13461;SDS011;6803;45.264;5.468;2023-03-14T13:23:57;1.97;;;0.60;;
13461;SDS011;6803;45.264;5.468;2023-03-14T13:26:34;8.97;;;1.10;;
13461;SDS011;6803;45.264;5.468;2023-03-14T13:29:11;3.87;;;1.00;;
13461;SDS011;6803;45.264;5.468;2023-03-14T13:31:48;3.20;;;0.80;;
13461;SDS011;6803;45.264;5.468;2023-03-14T13:34:20;2.23;;;0.73;;
13461;SDS011;6803;45.264;5.468;2023-03-14T13:36:52;2.87;;;0.73;;
13461;SDS011;6803;45.264;5.468;2023-03-14T13:39:25;4.83;;;0.97;;
13461;SDS011;6803;45.264;5.468;2023-03-14T13:42:00;1.40;;;0.70;;
13461;SDS011;6803;45.264;5.468;2023-03-14T13:44:32;8.08;;;2.20;;
13461;SDS011;6803;45.264;5.468;2023-03-14T13:47:10;2.33;;;1.00;;
13461;SDS011;6803;45.264;5.468;2023-03-14T13:49:45;2.10;;;1.10;;
13461;SDS011;6803;45.264;5.468;2023-03-14T13:52:35;3.23;;;1.20;;
13461;SDS011;6803;45.264;5.468;2023-03-14T13:55:13;2.73;;;1.13;;
13461;SDS011;6803;45.264;5.468;2023-03-14T13:57:47;2.13;;;0.90;;
13461;SDS011;6803;45.264;5.468;2023-03-14T14:00:23;2.60;;;1.03;;
13461;SDS011;6803;45.264;5.468;2023-03-14T14:02:55;2.77;;;0.83;;
13461;SDS011;6803;45.264;5.468;2023-03-14T14:05:28;3.00;;;1.03;;
13461;SDS011;6803;45.264;5.468;2023-03-14T14:08:03;4.13;;;0.93;;
13461;SDS011;6803;45.264;5.468;2023-03-14T14:10:35;2.57;;;1.10;;
13461;SDS011;6803;45.264;5.468;2023-03-14T14:13:08;4.13;;;1.10;;
13461;SDS011;6803;45.264;5.468;2023-03-14T14:15:43;3.67;;;1.20;;
13461;SDS011;6803;45.264;5.468;2023-03-14T14:18:16;1.90;;;0.93;;
13461;SDS011;6803;45.264;5.468;2023-03-14T14:20:51;2.97;;;0.90;;
13461;SDS011;6803;45.264;5.468;2023-03-14T14:23:22;2.47;;;0.90;;
13461;SDS011;6803;45.264;5.468;2023-03-14T14:25:57;2.10;;;0.70;;
13461;SDS011;6803;45.264;5.468;2023-03-14T14:28:28;3.90;;;1.20;;
13461;SDS011;6803;45.264;5.468;2023-03-14T14:31:02;3.10;;;0.90;;
13461;SDS011;6803;45.264;5.468;2023-03-14T14:33:38;2.53;;;1.00;;
13461;SDS011;6803;45.264;5.468;2023-03-14T14:36:16;2.60;;;0.90;;
13461;SDS011;6803;45.264;5.468;2023-03-14T14:38:50;2.42;;;0.90;;
13461;SDS011;6803;45.264;5.468;2023-03-14T14:41:26;3.70;;;1.00;;
13461;SDS011;6803;45.264;5.468;2023-03-14T14:44:00;2.67;;;0.97;;
13461;SDS011;6803;45.264;5.468;2023-03-14T14:46:33;3.97;;;1.30;;
13461;SDS011;6803;45.264;5.468;2023-03-14T14:49:09;2.60;;;0.93;;
13461;SDS011;6803;45.264;5.468;2023-03-14T14:51:41;4.90;;;0.93;;
13461;SDS011;6803;45.264;5.468;2023-03-14T14:54:14;3.27;;;0.83;;
13461;SDS011;6803;45.264;5.468;2023-03-14T14:56:48;2.57;;;1.30;;
13461;SDS011;6803;45.264;5.468;2023-03-14T14:59:24;1.57;;;0.90;;
13461;SDS011;6803;45.264;5.468;2023-03-14T15:01:57;1.33;;;1.00;;
13461;SDS011;6803;45.264;5.468;2023-03-14T15:04:30;1.17;;;1.00;;
13461;SDS011;6803;45.264;5.468;2023-03-14T15:07:01;3.43;;;0.90;;
13461;SDS011;6803;45.264;5.468;2023-03-14T15:09:32;1.33;;;0.93;;
13461;SDS011;6803;45.264;5.468;2023-03-14T15:12:03;2.60;;;1.03;;
13461;SDS011;6803;45.264;5.468;2023-03-14T15:14:35;2.13;;;0.90;;
13461;SDS011;6803;45.264;5.468;2023-03-14T15:17:08;3.20;;;1.13;;
13461;SDS011;6803;45.264;5.468;2023-03-14T15:19:46;2.43;;;1.00;;
13461;SDS011;6803;45.264;5.468;2023-03-14T15:22:17;3.93;;;1.53;;
13461;SDS011;6803;45.264;5.468;2023-03-14T15:24:48;2.00;;;0.90;;
13461;SDS011;6803;45.264;5.468;2023-03-14T15:27:19;2.50;;;1.00;;
13461;SDS011;6803;45.264;5.468;2023-03-14T15:29:50;2.63;;;1.30;;
13461;SDS011;6803;45.264;5.468;2023-03-14T15:32:21;4.00;;;1.10;;
13461;SDS011;6803;45.264;5.468;2023-03-14T15:34:52;1.50;;;1.00;;
13461;SDS011;6803;45.264;5.468;2023-03-14T15:37:25;2.53;;;0.70;;
13461;SDS011;6803;45.264;5.468;2023-03-14T15:39:56;2.13;;;1.13;;
13461;SDS011;6803;45.264;5.468;2023-03-14T15:42:27;3.73;;;1.00;;
13461;SDS011;6803;45.264;5.468;2023-03-14T15:44:58;3.90;;;0.97;;
13461;SDS011;6803;45.264;5.468;2023-03-14T15:47:29;3.07;;;1.17;;
13461;SDS011;6803;45.264;5.468;2023-03-14T15:50:01;1.93;;;1.03;;
13461;SDS011;6803;45.264;5.468;2023-03-14T15:52:32;3.10;;;0.87;;
13461;SDS011;6803;45.264;5.468;2023-03-14T15:55:04;3.40;;;1.00;;
13461;SDS011;6803;45.264;5.468;2023-03-14T15:57:36;4.73;;;0.97;;
13461;SDS011;6803;45.264;5.468;2023-03-14T16:00:10;3.00;;;1.12;;